createdAt,value
2023-06-11T00:01:25.298Z,54.04
2023-06-11T00:03:54.465Z,54.44
2023-06-11T00:06:23.392Z,55.06
2023-06-11T00:08:52.392Z,55.05
2023-06-11T00:11:19.615Z,55.30
2023-06-11T00:13:46.159Z,55.21
2023-06-11T00:16:14.789Z,55.05
2023-06-11T00:18:42.736Z,55.06
2023-06-11T00:21:10.646Z,55.29
2023-06-11T00:23:38.625Z,56.00
2023-06-11T00:26:06.757Z,55.93
2023-06-11T00:28:33.744Z,55.82
2023-06-11T00:31:05.127Z,55.72
2023-06-11T00:33:31.885Z,55.91
2023-06-11T00:35:58.512Z,56.00
2023-06-11T00:38:25.057Z,55.44
2023-06-11T00:40:51.554Z,56.16
2023-06-11T00:43:22.561Z,55.90
2023-06-11T00:45:52.061Z,55.98
2023-06-11T00:48:22.249Z,55.97
2023-06-11T00:50:52.982Z,55.72
2023-06-11T00:53:20.997Z,55.88
2023-06-11T00:55:48.367Z,56.45
2023-06-11T00:58:18.701Z,57.30
2023-06-11T01:00:48.322Z,56.38
2023-06-11T01:03:19.141Z,56.12
2023-06-11T01:06:02.725Z,55.75
2023-06-11T01:08:36.335Z,56.20
2023-06-11T01:11:04.024Z,55.97
2023-06-11T01:13:30.705Z,56.07
2023-06-11T01:16:06.753Z,56.31
2023-06-11T01:18:43.674Z,56.91
2023-06-11T01:21:15.025Z,56.13
2023-06-11T01:23:47.655Z,56.31
2023-06-11T01:26:52.773Z,55.94
2023-06-11T01:29:22.731Z,55.74
2023-06-11T01:31:51.658Z,55.61
2023-06-11T01:34:18.209Z,55.63
2023-06-11T01:36:44.789Z,56.55
2023-06-11T01:39:12.697Z,56.58
2023-06-11T01:41:39.293Z,56.85
2023-06-11T01:44:05.833Z,57.42
2023-06-11T01:46:33.229Z,57.58
2023-06-11T01:48:59.824Z,57.85
2023-06-11T01:51:26.529Z,57.73
2023-06-11T01:53:55.939Z,58.02
2023-06-11T01:56:22.440Z,58.01
2023-06-11T01:58:49.186Z,58.32
2023-06-11T02:01:15.762Z,58.04
2023-06-11T02:03:42.486Z,57.98
2023-06-11T02:06:10.018Z,57.80
2023-06-11T02:08:36.550Z,58.24
2023-06-11T02:11:04.057Z,58.33
2023-06-11T02:13:31.830Z,58.07
2023-06-11T02:16:00.045Z,58.32
2023-06-11T02:18:26.610Z,58.06
2023-06-11T02:20:53.263Z,58.38
2023-06-11T02:23:20.020Z,58.10
2023-06-11T02:25:46.617Z,57.83
2023-06-11T02:28:13.089Z,58.00
2023-06-11T02:30:39.548Z,58.30
2023-06-11T02:33:06.131Z,58.55
2023-06-11T02:35:32.644Z,58.45
2023-06-11T02:37:59.171Z,58.35
2023-06-11T02:40:25.681Z,58.97
2023-06-11T02:42:52.188Z,58.64
2023-06-11T02:45:18.638Z,58.00
2023-06-11T02:47:45.180Z,58.21
2023-06-11T02:50:11.657Z,57.89
2023-06-11T02:52:38.202Z,57.89
2023-06-11T02:55:05.113Z,57.38
2023-06-11T02:57:31.595Z,58.04
2023-06-11T02:59:58.097Z,57.87
2023-06-11T03:02:24.574Z,58.42
2023-06-11T03:04:51.075Z,58.62
2023-06-11T03:07:17.544Z,59.17
2023-06-11T03:09:44.017Z,59.41
2023-06-11T03:12:10.599Z,59.73
2023-06-11T03:14:37.085Z,60.04
2023-06-11T03:17:03.719Z,60.39
2023-06-11T03:19:30.360Z,60.39
2023-06-11T03:21:57.200Z,60.59
2023-06-11T03:24:23.793Z,60.68
2023-06-11T03:26:50.756Z,60.90
2023-06-11T03:29:17.224Z,61.27
2023-06-11T03:31:45.021Z,61.53
2023-06-11T03:34:11.623Z,61.15
2023-06-11T03:36:38.134Z,61.00
2023-06-11T03:39:04.597Z,60.48
2023-06-11T03:41:31.314Z,60.63
2023-06-11T03:43:57.818Z,61.60
2023-06-11T03:46:24.349Z,60.94
2023-06-11T03:48:50.905Z,61.48
2023-06-11T03:51:17.588Z,61.57
2023-06-11T03:53:44.207Z,61.11
2023-06-11T03:56:10.813Z,60.83
2023-06-11T03:58:37.322Z,60.76
2023-06-11T04:01:03.804Z,60.97
2023-06-11T04:03:30.381Z,60.79
2023-06-11T04:05:57.023Z,60.53
2023-06-11T04:08:23.511Z,60.63
2023-06-11T04:10:50.060Z,60.91
2023-06-11T04:13:16.681Z,60.72
2023-06-11T04:15:43.154Z,60.56
2023-06-11T04:18:11.110Z,60.96
2023-06-11T04:20:37.864Z,60.67
2023-06-11T04:23:04.449Z,60.37
2023-06-11T04:25:32.850Z,59.96
2023-06-11T04:27:59.527Z,59.71
2023-06-11T04:30:28.106Z,59.00
2023-06-11T04:32:56.461Z,58.48
2023-06-11T04:35:24.838Z,56.19
2023-06-11T04:37:51.404Z,54.26
2023-06-11T04:40:19.685Z,52.08
2023-06-11T04:42:47.591Z,49.45
2023-06-11T04:45:14.449Z,48.38
2023-06-11T04:47:41.748Z,45.61
2023-06-11T04:50:08.863Z,44.82
2023-06-11T04:52:44.124Z,44.28
2023-06-11T04:55:11.673Z,43.10
2023-06-11T04:57:39.450Z,42.15
2023-06-11T05:00:12.318Z,41.37
2023-06-11T05:02:39.889Z,40.72
2023-06-11T05:05:06.962Z,39.93
2023-06-11T05:07:34.259Z,39.50
2023-06-11T05:10:02.563Z,39.55
2023-06-11T05:12:29.044Z,39.19
2023-06-11T05:14:55.560Z,39.00
2023-06-11T05:17:22.089Z,39.11
2023-06-11T05:19:48.588Z,38.99
2023-06-11T05:22:15.064Z,37.38
2023-06-11T05:24:44.003Z,38.39
2023-06-11T05:27:10.766Z,37.66
2023-06-11T05:29:39.107Z,38.05
2023-06-11T05:32:06.772Z,37.04
2023-06-11T05:34:34.420Z,36.53
2023-06-11T05:37:02.230Z,36.16
2023-06-11T05:39:28.760Z,35.91
2023-06-11T05:41:55.209Z,36.42
2023-06-11T05:44:21.596Z,35.83
2023-06-11T05:46:48.286Z,36.66
2023-06-11T05:49:14.929Z,37.14
2023-06-11T05:51:41.461Z,35.86
2023-06-11T05:54:08.491Z,37.12
2023-06-11T05:56:34.984Z,40.07
2023-06-11T05:59:01.773Z,39.43
2023-06-11T06:01:29.733Z,40.22
2023-06-11T06:03:56.538Z,40.55
2023-06-11T06:06:23.140Z,39.94
2023-06-11T06:08:49.612Z,39.71
2023-06-11T06:11:16.073Z,39.75
2023-06-11T06:13:42.546Z,41.22
2023-06-11T06:16:09.282Z,41.72
2023-06-11T06:18:38.221Z,40.89
2023-06-11T06:21:04.757Z,40.79
2023-06-11T06:23:31.156Z,41.18
2023-06-11T06:25:57.808Z,40.03
2023-06-11T06:28:24.285Z,38.83
2023-06-11T06:30:51.248Z,39.90
2023-06-11T06:33:17.906Z,38.11
2023-06-11T06:35:44.481Z,36.89
2023-06-11T06:38:10.923Z,36.82
2023-06-11T06:40:37.314Z,35.47
2023-06-11T06:43:03.918Z,35.05
2023-06-11T06:45:30.489Z,36.10
2023-06-11T06:47:57.017Z,36.80
2023-06-11T06:50:23.569Z,36.54
2023-06-11T06:52:50.049Z,36.21
2023-06-11T06:55:16.408Z,36.60
2023-06-11T06:57:42.900Z,39.61
2023-06-11T07:00:09.969Z,38.67
2023-06-11T07:02:36.900Z,40.08
2023-06-11T07:05:04.850Z,39.58
2023-06-11T07:07:31.312Z,40.85
2023-06-11T07:09:57.796Z,41.98
2023-06-11T07:12:24.261Z,41.02
2023-06-11T07:14:51.263Z,44.02
2023-06-11T07:17:19.450Z,41.16
2023-06-11T07:19:46.185Z,40.70
2023-06-11T07:22:12.737Z,41.52
2023-06-11T07:24:43.972Z,40.14
2023-06-11T07:27:11.486Z,42.40
2023-06-11T07:29:40.168Z,41.79
2023-06-11T07:32:09.919Z,42.22
2023-06-11T07:34:36.594Z,41.09
2023-06-11T07:37:03.199Z,40.75
2023-06-11T07:39:29.771Z,38.93
2023-06-11T07:41:56.388Z,40.15
2023-06-11T07:44:22.866Z,40.58
2023-06-11T07:46:49.407Z,39.93
2023-06-11T07:49:16.114Z,40.86
2023-06-11T07:51:43.885Z,39.85
2023-06-11T07:54:10.347Z,40.36
2023-06-11T07:56:37.041Z,37.54
2023-06-11T07:59:03.829Z,37.75
2023-06-11T08:01:30.676Z,37.30
2023-06-11T08:03:57.937Z,38.75
2023-06-11T08:06:26.582Z,40.37
2023-06-11T08:08:53.404Z,38.40
2023-06-11T08:11:20.096Z,37.68
2023-06-11T08:13:47.604Z,36.82
2023-06-11T08:16:14.331Z,37.59
2023-06-11T08:18:40.940Z,36.79
2023-06-11T08:21:07.478Z,36.46
2023-06-11T08:23:37.207Z,35.17
2023-06-11T08:26:03.936Z,35.38
2023-06-11T08:31:42.697Z,36.04
2023-06-11T08:34:09.845Z,35.04
2023-06-11T08:36:41.753Z,34.95
2023-06-11T08:39:45.962Z,32.52
2023-06-11T08:42:15.448Z,34.66
2023-06-11T08:44:44.288Z,32.96
2023-06-11T08:47:12.189Z,30.71
2023-06-11T08:50:53.765Z,31.84
2023-06-11T08:53:20.711Z,33.50
2023-06-11T08:55:47.540Z,31.89
2023-06-11T08:58:14.468Z,32.05
2023-06-11T09:01:11.059Z,32.19
2023-06-11T09:03:38.177Z,30.72
2023-06-11T09:06:05.837Z,29.81
2023-06-11T09:08:32.534Z,31.07
2023-06-11T09:11:02.962Z,29.71
2023-06-11T09:13:29.491Z,29.41
2023-06-11T09:15:57.099Z,30.83
2023-06-11T09:18:28.444Z,30.81
2023-06-11T09:20:57.553Z,32.43
2023-06-11T09:23:32.495Z,31.73
2023-06-11T09:26:01.065Z,32.42
2023-06-11T09:28:35.801Z,31.06
2023-06-11T09:31:07.227Z,30.82
2023-06-11T09:33:37.352Z,30.55
2023-06-11T09:36:04.372Z,29.67
2023-06-11T09:38:35.764Z,29.07
2023-06-11T09:41:05.846Z,28.33
2023-06-11T09:43:32.425Z,28.64
2023-06-11T09:45:59.343Z,28.80
2023-06-11T09:48:26.264Z,29.97
2023-06-11T09:50:54.399Z,30.32
2023-06-11T09:53:22.397Z,30.52
2023-06-11T09:58:25.464Z,31.46
2023-06-11T10:00:53.804Z,31.73
2023-06-11T10:03:20.888Z,32.68
2023-06-11T10:05:47.795Z,34.21
2023-06-11T10:08:23.346Z,32.20
2023-06-11T10:10:56.040Z,32.43
2023-06-11T10:13:30.645Z,33.25
2023-06-11T10:16:00.533Z,30.87
2023-06-11T10:18:27.850Z,30.21
2023-06-11T10:21:04.077Z,29.73
2023-06-11T10:23:41.677Z,30.31
2023-06-11T10:26:12.682Z,30.45
2023-06-11T10:28:43.393Z,29.41
2023-06-11T10:31:10.164Z,29.70
2023-06-11T10:33:46.350Z,29.90
2023-06-11T10:36:26.582Z,30.36
2023-06-11T10:39:09.989Z,30.41
2023-06-11T10:41:41.104Z,30.68
2023-06-11T10:44:08.698Z,27.87
2023-06-11T10:46:47.117Z,28.99
2023-06-11T10:49:15.819Z,28.63
2023-06-11T10:51:42.714Z,28.00
2023-06-11T10:54:09.314Z,27.77
2023-06-11T10:56:41.619Z,27.84
2023-06-11T10:59:11.049Z,28.46
2023-06-11T11:01:38.418Z,27.08
2023-06-11T11:04:05.640Z,27.33
2023-06-11T11:06:32.927Z,26.40
2023-06-11T11:09:00.481Z,27.94
2023-06-11T11:11:29.801Z,27.08
2023-06-11T11:14:01.525Z,28.52
2023-06-11T11:16:28.749Z,27.37
2023-06-11T11:18:55.392Z,27.81
2023-06-11T11:21:28.985Z,26.00
2023-06-11T11:23:56.869Z,27.39
2023-06-11T11:26:23.557Z,27.56
2023-06-11T11:28:50.044Z,27.59
2023-06-11T11:31:21.210Z,28.38
2023-06-11T11:33:51.575Z,27.61
2023-06-11T11:36:18.199Z,25.69
2023-06-11T11:38:44.608Z,24.81
2023-06-11T11:41:11.102Z,26.04
2023-06-11T11:43:40.710Z,25.21
2023-06-11T11:46:18.289Z,26.06
2023-06-11T11:48:45.260Z,26.62
2023-06-11T11:51:14.644Z,27.01
2023-06-11T11:53:42.586Z,26.47
2023-06-11T11:56:09.634Z,26.21
2023-06-11T11:58:43.070Z,25.54
2023-06-11T12:01:24.258Z,25.50
2023-06-11T12:04:02.214Z,26.65
2023-06-11T12:06:30.414Z,26.16
2023-06-11T12:08:57.184Z,24.59
2023-06-11T12:11:23.662Z,24.75
2023-06-11T12:13:50.270Z,23.34
2023-06-11T12:16:16.741Z,24.24
2023-06-11T12:18:43.326Z,23.31
2023-06-11T12:21:10.591Z,23.52
2023-06-11T12:23:37.404Z,23.14
2023-06-11T12:26:04.042Z,23.99
2023-06-11T12:28:30.639Z,24.61
2023-06-11T12:30:58.021Z,24.49
2023-06-11T12:33:24.556Z,25.43
2023-06-11T12:35:51.271Z,24.68
2023-06-11T12:38:19.579Z,24.67
2023-06-11T12:40:46.068Z,24.55
2023-06-11T12:43:12.540Z,24.87
2023-06-11T12:45:39.115Z,23.89
2023-06-11T12:48:06.084Z,23.04
2023-06-11T12:50:32.827Z,23.25
2023-06-11T12:53:00.357Z,22.84
2023-06-11T12:55:26.871Z,22.69
2023-06-11T12:57:53.432Z,22.46
2023-06-11T13:00:20.365Z,23.80
2023-06-11T13:02:47.014Z,24.02
2023-06-11T13:05:13.468Z,24.33
2023-06-11T13:07:39.943Z,24.85
2023-06-11T13:10:06.856Z,24.76
2023-06-11T13:12:33.767Z,24.13
2023-06-11T13:15:00.865Z,24.39
2023-06-11T13:17:27.467Z,24.37
2023-06-11T13:19:55.592Z,23.80
2023-06-11T13:22:22.350Z,23.82
2023-06-11T13:24:48.989Z,24.65
2023-06-11T13:27:15.522Z,23.76
2023-06-11T13:29:42.266Z,24.85
2023-06-11T13:32:09.358Z,25.02
2023-06-11T13:34:36.947Z,25.42
2023-06-11T13:37:04.244Z,25.09
2023-06-11T13:39:30.845Z,25.06
2023-06-11T13:41:58.689Z,25.05
2023-06-11T13:44:25.625Z,24.55
2023-06-11T13:46:52.660Z,24.16
2023-06-11T13:49:19.270Z,24.16
2023-06-11T13:51:45.689Z,24.52
2023-06-11T13:54:12.167Z,25.33
2023-06-11T13:56:39.544Z,24.81
2023-06-11T13:59:06.215Z,25.10
2023-06-11T14:01:32.819Z,24.68
2023-06-11T14:03:59.368Z,25.89
2023-06-11T14:06:26.060Z,25.35
2023-06-11T14:08:52.512Z,25.56
2023-06-11T14:11:19.374Z,25.11
2023-06-11T14:13:46.229Z,24.53
2023-06-11T14:16:13.047Z,25.33
2023-06-11T14:18:39.669Z,24.43
2023-06-11T14:21:06.314Z,24.32
2023-06-11T14:23:32.800Z,24.11
2023-06-11T14:25:59.409Z,23.76
2023-06-11T14:28:25.850Z,24.57
2023-06-11T14:30:53.947Z,25.04
2023-06-11T14:33:21.128Z,25.65
2023-06-11T14:35:48.066Z,24.56
2023-06-11T14:38:14.575Z,24.17
2023-06-11T14:40:41.420Z,24.30
2023-06-11T14:43:07.922Z,23.52
2023-06-11T14:45:34.564Z,23.56
2023-06-11T14:48:01.691Z,23.35
2023-06-11T14:50:28.378Z,22.78
2023-06-11T14:52:55.231Z,22.19
2023-06-11T14:55:21.707Z,22.49
2023-06-11T14:57:48.202Z,22.86
2023-06-11T15:00:16.710Z,23.43
2023-06-11T15:02:43.315Z,23.43
2023-06-11T15:05:09.903Z,23.18
2023-06-11T15:07:36.551Z,24.15
2023-06-11T15:10:04.537Z,23.51
2023-06-11T15:12:31.344Z,24.19
2023-06-11T15:15:01.235Z,24.25
2023-06-11T15:17:31.108Z,24.03
2023-06-11T15:19:59.768Z,23.35
2023-06-11T15:22:26.598Z,23.18
2023-06-11T15:24:53.013Z,24.09
2023-06-11T15:27:19.740Z,23.39
2023-06-11T15:29:46.370Z,23.44
2023-06-11T15:32:14.462Z,23.64
2023-06-11T15:34:42.553Z,23.67
2023-06-11T15:37:09.081Z,23.96
2023-06-11T15:39:35.643Z,23.23
2023-06-11T15:42:02.517Z,24.32
2023-06-11T15:44:29.064Z,24.94
2023-06-11T15:46:55.616Z,23.54
2023-06-11T15:49:22.286Z,24.57
2023-06-11T15:51:49.260Z,24.08
2023-06-11T15:54:16.260Z,23.79
2023-06-11T15:56:47.646Z,23.86
2023-06-11T15:59:15.236Z,23.28
2023-06-11T16:01:43.505Z,23.61
2023-06-11T16:04:10.499Z,23.47
2023-06-11T16:06:37.192Z,23.40
2023-06-11T16:09:03.812Z,23.00
2023-06-11T16:11:30.384Z,23.10
2023-06-11T16:13:57.056Z,23.19
2023-06-11T16:16:23.548Z,22.90
2023-06-11T16:18:50.315Z,22.24
2023-06-11T16:21:17.306Z,23.29
2023-06-11T16:23:44.878Z,23.72
2023-06-11T16:26:11.666Z,23.51
2023-06-11T16:28:38.229Z,22.48
2023-06-11T16:31:04.719Z,22.62
2023-06-11T16:33:47.164Z,23.08
2023-06-11T16:36:18.471Z,23.77
2023-06-11T16:38:45.470Z,23.96
2023-06-11T16:41:12.127Z,23.24
2023-06-11T16:43:40.095Z,22.48
2023-06-11T16:46:08.978Z,22.86
2023-06-11T16:48:35.802Z,22.71
2023-06-11T16:51:02.319Z,22.12
2023-06-11T16:53:30.129Z,22.70
2023-06-11T16:55:56.684Z,22.99
2023-06-11T16:58:23.397Z,23.71
2023-06-11T17:00:50.066Z,23.36
2023-06-11T17:03:16.961Z,23.46
2023-06-11T17:05:43.815Z,23.89
2023-06-11T17:08:10.580Z,24.16
2023-06-11T17:10:37.117Z,24.26
2023-06-11T17:13:03.583Z,24.32
2023-06-11T17:15:30.289Z,25.20
2023-06-11T17:17:59.291Z,25.19
2023-06-11T17:20:26.608Z,24.41
2023-06-11T17:22:53.198Z,25.10
2023-06-11T17:25:22.248Z,25.53
2023-06-11T17:27:48.946Z,25.63
2023-06-11T17:30:16.013Z,25.71
2023-06-11T17:32:42.631Z,26.27
2023-06-11T17:35:10.700Z,26.20
2023-06-11T17:37:37.477Z,26.42
2023-06-11T17:40:05.673Z,26.53
2023-06-11T17:42:32.137Z,25.95
2023-06-11T17:44:58.725Z,25.91
2023-06-11T17:47:25.491Z,25.85
2023-06-11T17:49:52.049Z,26.28
2023-06-11T17:52:18.567Z,26.24
2023-06-11T17:54:45.433Z,26.06
2023-06-11T17:57:11.982Z,26.30
2023-06-11T17:59:38.503Z,25.90
2023-06-11T18:02:05.438Z,25.75
2023-06-11T18:04:32.174Z,26.50
2023-06-11T18:06:58.833Z,26.79
2023-06-11T18:09:25.552Z,26.56
2023-06-11T18:11:52.032Z,26.95
2023-06-11T18:14:18.627Z,26.93
2023-06-11T18:16:45.163Z,27.54
2023-06-11T18:19:11.989Z,27.61
2023-06-11T18:21:41.904Z,27.69
2023-06-11T18:24:08.882Z,27.83
2023-06-11T18:26:45.906Z,27.83
2023-06-11T18:29:12.467Z,27.52
2023-06-11T18:31:39.081Z,27.16
2023-06-11T18:34:07.206Z,27.83
2023-06-11T18:36:33.727Z,27.71
2023-06-11T18:39:00.345Z,27.83
2023-06-11T18:45:12.695Z,28.10
2023-06-11T18:50:57.890Z,27.89
2023-06-11T18:53:25.252Z,28.43
2023-06-11T18:56:26.174Z,27.99
2023-06-11T19:03:36.227Z,28.80
2023-06-11T19:07:17.152Z,29.21
2023-06-11T19:10:20.683Z,29.56
2023-06-11T19:12:47.252Z,30.12
2023-06-11T19:15:14.012Z,30.26
2023-06-11T19:20:51.551Z,29.97
2023-06-11T19:23:19.214Z,29.87
2023-06-11T19:25:56.245Z,30.46
2023-06-11T19:28:50.185Z,30.26
2023-06-11T19:32:04.579Z,30.93
2023-06-11T19:34:59.232Z,30.74
2023-06-11T19:37:30.429Z,31.32
2023-06-11T19:40:13.557Z,30.97
2023-06-11T19:43:27.521Z,31.34
2023-06-11T19:45:54.076Z,31.63
2023-06-11T19:48:22.676Z,32.05
2023-06-11T19:50:50.026Z,31.91
2023-06-11T19:53:16.697Z,32.13
2023-06-11T19:55:45.301Z,32.12
2023-06-11T19:58:12.197Z,32.48
2023-06-11T20:00:38.595Z,32.52
2023-06-11T20:03:05.343Z,32.75
2023-06-11T20:05:33.676Z,32.54
2023-06-11T20:08:02.239Z,32.95
2023-06-11T20:10:30.184Z,33.46
2023-06-11T20:12:56.760Z,33.21
2023-06-11T20:15:23.329Z,33.48
2023-06-11T20:17:49.942Z,33.43
2023-06-11T20:20:16.624Z,33.35
2023-06-11T20:22:43.290Z,33.33
2023-06-11T20:25:09.922Z,33.64
2023-06-11T20:27:36.475Z,33.73
2023-06-11T20:30:07.118Z,33.81
2023-06-11T20:32:33.690Z,34.25
2023-06-11T20:35:00.773Z,34.13
2023-06-11T20:37:27.403Z,33.94
2023-06-11T20:39:54.025Z,34.24
2023-06-11T20:42:21.354Z,34.17
2023-06-11T20:44:48.036Z,34.62
2023-06-11T20:47:14.682Z,34.82
2023-06-11T20:49:41.533Z,34.59
2023-06-11T20:52:08.400Z,34.46
2023-06-11T20:54:35.918Z,34.63
2023-06-11T20:57:02.743Z,34.82
2023-06-11T20:59:29.398Z,34.58
2023-06-11T21:01:56.041Z,34.68
2023-06-11T21:04:22.613Z,34.83
2023-06-11T21:06:49.125Z,35.03
2023-06-11T21:09:15.651Z,35.01
2023-06-11T21:11:43.226Z,34.98
2023-06-11T21:14:14.747Z,34.88
2023-06-11T21:16:42.021Z,35.29
2023-06-11T21:19:08.568Z,35.31
2023-06-11T21:21:35.345Z,34.80
2023-06-11T21:24:03.456Z,35.16
2023-06-11T21:26:30.448Z,35.14
2023-06-11T21:28:57.709Z,35.45
2023-06-11T21:31:24.606Z,35.45
2023-06-11T21:33:51.169Z,35.55
2023-06-11T21:36:17.756Z,36.16
2023-06-11T21:38:44.511Z,35.71
2023-06-11T21:41:11.169Z,35.81
2023-06-11T21:43:37.707Z,35.92
2023-06-11T21:46:04.327Z,35.83
2023-06-11T21:48:30.908Z,36.35
2023-06-11T21:50:57.465Z,36.21
2023-06-11T21:53:24.153Z,36.44
2023-06-11T21:55:50.790Z,36.19
2023-06-11T21:58:17.294Z,36.22
2023-06-11T22:00:43.872Z,36.50
2023-06-11T22:03:11.097Z,36.84
2023-06-11T22:05:37.808Z,37.12
2023-06-11T22:08:04.490Z,37.23
2023-06-11T22:10:31.217Z,37.57
2023-06-11T22:12:59.166Z,37.57
2023-06-11T22:15:25.830Z,38.05
2023-06-11T22:17:54.073Z,37.70
2023-06-11T22:20:21.085Z,38.32
2023-06-11T22:22:47.797Z,38.11
2023-06-11T22:25:14.510Z,38.31
2023-06-11T22:27:42.863Z,38.36
2023-06-11T22:30:11.883Z,38.79
2023-06-11T22:32:39.039Z,38.80
2023-06-11T22:35:06.400Z,38.58
2023-06-11T22:37:35.077Z,38.87
2023-06-11T22:40:02.598Z,38.10
2023-06-11T22:42:29.476Z,38.22
2023-06-11T22:44:56.029Z,38.42
2023-06-11T22:47:22.546Z,38.38
2023-06-11T22:49:49.124Z,38.63
2023-06-11T22:52:17.658Z,38.27
2023-06-11T22:54:44.245Z,38.68
2023-06-11T22:57:11.745Z,38.98
2023-06-11T22:59:38.338Z,38.47
2023-06-11T23:02:05.043Z,38.70
2023-06-11T23:04:34.264Z,38.19
2023-06-11T23:07:03.380Z,38.05
2023-06-11T23:09:30.663Z,38.19
2023-06-11T23:11:57.327Z,38.25
2023-06-11T23:14:23.822Z,38.35
2023-06-11T23:16:50.529Z,38.49
2023-06-11T23:19:26.415Z,38.50
2023-06-11T23:21:57.507Z,39.03
2023-06-11T23:24:27.649Z,38.70
2023-06-11T23:26:57.589Z,39.10
2023-06-11T23:29:24.950Z,38.87
2023-06-11T23:31:51.823Z,38.85
2023-06-11T23:34:18.642Z,39.15
2023-06-11T23:36:45.509Z,39.20
2023-06-11T23:39:12.193Z,39.28
2023-06-11T23:41:38.668Z,38.89
2023-06-11T23:44:05.603Z,39.13
2023-06-11T23:46:34.616Z,38.92
2023-06-11T23:49:01.368Z,39.49
2023-06-11T23:51:29.361Z,39.46
2023-06-11T23:53:56.286Z,39.48
2023-06-11T23:56:23.450Z,39.81
2023-06-11T23:58:49.964Z,40.46
